Time;durP1;ratioP1;P1;durP2;ratioP2;P2;SDS_P1;SDS_P2;PMS_P1;PMS_P2;Temp;Humidity;BMP_temperature;BMP_pressure;BME280_temperature;BME280_humidity;BME280_pressure;Samples;Min_cycle;Max_cycle;Signal;HPM_P1;HPM_P2
2023/04/22 04:22:34;;;;;;;10.68;5.03;;;;;;;8.07;100.00;99548.13;5089455;28;20328;-65
2023/04/22 04:25:01;;;;;;;7.60;3.90;;;;;;;7.97;100.00;99541.41;5088420;28;20055;-63
2023/04/22 04:27:32;;;;;;;10.30;4.45;;;;;;;7.96;100.00;99545.06;5069024;28;20044;-62
2023/04/22 04:29:58;;;;;;;7.78;3.80;;;;;;;7.88;100.00;99551.19;5068174;28;20039;-62
2023/04/22 04:32:35;;;;;;;7.57;4.18;;;;;;;7.85;100.00;99560.34;5067967;28;20033;-65
2023/04/22 04:35:05;;;;;;;9.25;4.40;;;;;;;7.83;100.00;99557.03;5067810;28;20047;-63
2023/04/22 04:37:30;;;;;;;8.38;4.28;;;;;;;7.89;100.00;99543.09;5067493;28;20051;-63
2023/04/22 04:40:01;;;;;;;7.47;4.10;;;;;;;7.87;100.00;99538.94;5067869;28;20425;-63
2023/04/22 04:42:38;;;;;;;8.27;4.15;;;;;;;7.92;100.00;99541.91;5067900;28;20040;-62
2023/04/22 04:45:09;;;;;;;8.30;4.20;;;;;;;7.85;100.00;99548.91;5067776;28;20040;-64
2023/04/22 04:47:35;;;;;;;8.57;3.75;;;;;;;7.85;100.00;99549.72;5067474;28;20041;-64
2023/04/22 04:50:11;;;;;;;7.25;4.10;;;;;;;7.82;100.00;99549.22;5067530;28;20039;-64
2023/04/22 04:52:36;;;;;;;8.23;3.83;;;;;;;7.77;100.00;99560.38;5067562;28;20033;-64
2023/04/22 04:55:03;;;;;;;5.82;3.60;;;;;;;7.81;100.00;99555.53;5067377;28;20036;-63
2023/04/22 04:57:31;;;;;;;6.13;3.40;;;;;;;7.76;100.00;99558.72;5067083;28;20123;-66
2023/04/22 04:59:57;;;;;;;9.02;3.95;;;;;;;7.76;100.00;99569.34;5067373;28;20129;-63
2023/04/22 05:02:22;;;;;;;8.43;4.07;;;;;;;7.73;100.00;99569.66;5066916;28;20044;-63
2023/04/22 05:04:48;;;;;;;5.32;3.63;;;;;;;7.77;100.00;99568.31;5067171;28;20043;-65
2023/04/22 05:07:14;;;;;;;8.45;3.63;;;;;;;7.75;100.00;99572.94;5066649;28;20044;-65
2023/04/22 05:09:40;;;;;;;7.35;4.25;;;;;;;7.75;100.00;99572.13;5067134;28;20045;-65
2023/04/22 05:12:06;;;;;;;8.88;4.60;;;;;;;7.84;100.00;99568.47;5067105;28;20029;-63
2023/04/22 05:14:32;;;;;;;5.53;3.33;;;;;;;7.74;100.00;99571.31;5067040;28;20104;-63
2023/04/22 05:16:58;;;;;;;7.13;3.95;;;;;;;7.77;100.00;99565.69;5066839;28;20105;-65
2023/04/22 05:19:23;;;;;;;7.53;3.65;;;;;;;7.72;100.00;99575.97;5066792;28;20524;-65
2023/04/22 05:21:51;;;;;;;6.78;4.07;;;;;;;7.69;100.00;99570.16;5066696;28;20043;-64
2023/04/22 05:24:17;;;;;;;4.43;3.75;;;;;;;7.69;100.00;99570.16;5066813;28;20046;-60
2023/04/22 05:26:43;;;;;;;5.45;3.55;;;;;;;7.67;100.00;99569.50;5066655;28;20037;-63
2023/04/22 05:29:14;;;;;;;11.40;4.63;;;;;;;7.68;100.00;99574.63;5066556;28;20074;-64
2023/04/22 05:31:39;;;;;;;5.43;3.45;;;;;;;7.69;100.00;99570.97;5067600;28;20037;-63
2023/04/22 05:34:05;;;;;;;5.45;3.60;;;;;;;7.72;100.00;99569.84;5052917;28;20584;-64
2023/04/22 05:36:31;;;;;;;6.45;3.05;;;;;;;7.75;100.00;99577.44;5053255;28;20040;-64
2023/04/22 05:38:57;;;;;;;5.65;3.65;;;;;;;7.81;100.00;99574.94;5053045;28;20033;-64
2023/04/22 05:41:23;;;;;;;6.65;3.53;;;;;;;7.94;100.00;99578.84;5053235;28;20044;-65
2023/04/22 05:43:49;;;;;;;7.43;3.72;;;;;;;8.11;100.00;99585.75;5053281;28;20485;-64
2023/04/22 05:46:16;;;;;;;9.57;4.15;;;;;;;8.23;100.00;99587.03;5053110;28;20144;-64
2023/04/22 05:48:43;;;;;;;7.25;4.47;;;;;;;8.33;100.00;99587.59;5052883;28;20041;-62
2023/04/22 05:51:24;;;;;;;11.75;4.10;;;;;;;8.48;100.00;99594.88;5053047;28;20033;-63
2023/04/22 05:53:50;;;;;;;6.53;3.88;;;;;;;8.62;100.00;99592.28;5053077;28;20037;-62
2023/04/22 05:56:16;;;;;;;7.93;4.05;;;;;;;8.84;100.00;99606.56;5054062;28;20126;-64
2023/04/22 05:58:41;;;;;;;5.90;3.92;;;;;;;8.95;100.00;99608.81;5053973;28;20033;-64
2023/04/22 06:01:11;;;;;;;6.10;3.70;;;;;;;9.17;100.00;99607.13;5052898;28;20033;-65
2023/04/22 06:03:46;;;;;;;8.65;4.68;;;;;;;9.39;100.00;99608.09;5052761;28;20120;-62
2023/04/22 06:06:12;;;;;;;8.43;4.32;;;;;;;9.50;100.00;99598.84;5054111;28;20131;-65
2023/04/22 06:08:38;;;;;;;8.35;4.38;;;;;;;9.65;100.00;99605.00;5053940;28;20064;-63
2023/04/22 06:11:03;;;;;;;7.65;4.03;;;;;;;9.73;100.00;99607.56;5054057;28;20420;-65
2023/04/22 06:13:31;;;;;;;8.23;5.55;;;;;;;9.86;100.00;99608.78;5052740;28;20032;-62
2023/04/22 06:15:57;;;;;;;7.50;4.65;;;;;;;9.98;100.00;99607.31;5053840;28;20040;-66
2023/04/22 06:18:23;;;;;;;7.63;4.82;;;;;;;10.07;100.00;99607.00;5052272;28;20033;-65
2023/04/22 06:20:50;;;;;;;24.00;11.70;;;;;;;10.24;100.00;99602.34;5052485;28;20037;-67
2023/04/22 06:23:16;;;;;;;13.50;5.53;;;;;;;10.36;100.00;99594.69;5052408;28;20041;-63
2023/04/22 06:25:42;;;;;;;10.77;4.38;;;;;;;10.49;100.00;99605.47;5052451;28;20095;-64
2023/04/22 06:28:08;;;;;;;10.40;5.07;;;;;;;10.63;100.00;99597.63;5052106;28;20493;-64
2023/04/22 06:30:34;;;;;;;10.10;4.22;;;;;;;10.75;100.00;99604.09;5035839;28;20037;-63
2023/04/22 06:33:00;;;;;;;15.73;5.95;;;;;;;10.85;100.00;99593.97;5052179;28;20090;-61
2023/04/22 06:35:26;;;;;;;8.45;4.68;;;;;;;10.95;100.00;99593.63;5053486;28;20094;-61
2023/04/22 06:37:53;;;;;;;9.52;5.07;;;;;;;10.99;100.00;99594.91;5051956;28;20124;-59
2023/04/22 06:40:25;;;;;;;6.50;4.57;;;;;;;11.14;100.00;99588.47;5052250;28;20054;-58
2023/04/22 06:43:02;;;;;;;11.93;5.77;;;;;;;11.20;100.00;99588.72;5052188;28;20067;-59
2023/04/22 06:45:59;;;;;;;;;;;;;;;11.34;100.00;99590.47;5040898;28;20346;-61
2023/04/22 06:48:43;;;;;;;8.57;5.05;;;;;;;11.43;100.00;99594.66;5053315;28;19923;-59
2023/04/22 06:51:38;;;;;;;9.30;5.32;;;;;;;11.53;100.00;99583.63;5033395;28;20123;-59
2023/04/22 06:54:05;;;;;;;8.93;5.37;;;;;;;11.63;100.00;99584.13;5051983;28;20037;-56
2023/04/22 06:56:30;;;;;;;10.20;5.80;;;;;;;11.72;100.00;99590.94;5051744;28;20132;-60
2023/04/22 06:58:56;;;;;;;8.05;4.70;;;;;;;11.75;100.00;99582.56;5051619;28;20127;-58
2023/04/22 07:01:21;;;;;;;9.40;5.15;;;;;;;11.85;100.00;99595.56;5035249;28;20033;-58
2023/04/22 07:03:47;;;;;;;8.48;5.35;;;;;;;11.91;100.00;99597.44;5051718;28;20040;-59
2023/04/22 07:06:14;;;;;;;10.57;4.35;;;;;;;11.97;100.00;99598.50;5051588;28;20045;-58
2023/04/22 07:08:39;;;;;;;7.82;4.57;;;;;;;12.12;100.00;99599.16;5068053;28;20033;-59
2023/04/22 07:11:06;;;;;;;7.78;4.68;;;;;;;12.15;100.00;99586.25;5051532;28;20396;-58
2023/04/22 07:13:48;;;;;;;6.43;4.03;;;;;;;12.29;100.00;99586.31;5052788;28;20118;-61
2023/04/22 07:16:13;;;;;;;7.15;4.72;;;;;;;12.35;100.00;99583.66;5052771;28;20072;-58
2023/04/22 07:18:38;;;;;;;8.02;4.57;;;;;;;12.50;100.00;99595.00;5051187;28;20044;-61
2023/04/22 07:21:04;;;;;;;5.90;3.90;;;;;;;12.65;100.00;99597.53;5052655;28;20090;-60
2023/04/22 07:23:29;;;;;;;9.02;4.10;;;;;;;12.79;100.00;99603.72;5052750;28;20029;-62
2023/04/22 07:25:55;;;;;;;6.80;4.32;;;;;;;12.86;100.00;99599.19;5052575;28;20036;-62
2023/04/22 07:28:20;;;;;;;6.22;3.80;;;;;;;12.96;98.99;99599.59;5052354;28;20375;-59
2023/04/22 07:30:46;;;;;;;5.55;3.88;;;;;;;13.10;97.45;99604.97;5052503;28;20033;-60
2023/04/22 07:33:11;;;;;;;9.00;4.03;;;;;;;13.21;92.98;99607.88;5052416;28;20470;-54
2023/04/22 07:35:37;;;;;;;5.80;3.70;;;;;;;13.42;94.96;99611.38;5052388;28;20059;-59
2023/04/22 07:38:02;;;;;;;6.82;4.00;;;;;;;13.53;92.13;99600.88;5052303;28;20037;-55
2023/04/22 07:40:27;;;;;;;5.90;3.53;;;;;;;13.69;89.27;99596.94;5052385;28;20482;-57
2023/04/22 07:42:53;;;;;;;6.03;3.88;;;;;;;13.74;91.03;99591.78;5052476;28;20065;-61
2023/04/22 07:45:18;;;;;;;6.57;3.85;;;;;;;13.81;93.55;99602.47;5052189;28;20029;-59
2023/04/22 07:47:44;;;;;;;4.43;3.00;;;;;;;13.95;86.34;99601.38;5050611;28;20551;-58
2023/04/22 07:50:09;;;;;;;6.65;3.47;;;;;;;14.26;82.27;99597.16;5052166;28;20048;-60
2023/04/22 07:52:35;;;;;;;4.80;3.05;;;;;;;14.46;83.15;99586.34;5052273;28;20044;-59
2023/04/22 07:55:01;;;;;;;4.05;3.08;;;;;;;14.47;86.55;99590.69;5051974;28;20037;-60
2023/04/22 07:57:26;;;;;;;5.00;3.30;;;;;;;14.58;87.04;99593.53;5051697;28;20041;-59
2023/04/22 07:59:52;;;;;;;3.97;2.83;;;;;;;14.70;83.53;99587.50;5052336;28;20041;-60
2023/04/22 08:02:17;;;;;;;4.85;2.80;;;;;;;14.86;83.79;99590.47;5052002;28;20045;-53
2023/04/22 08:04:43;;;;;;;4.63;2.78;;;;;;;14.92;78.80;99581.53;5051964;28;20044;-59
2023/04/22 08:07:08;;;;;;;6.63;3.10;;;;;;;15.05;76.55;99577.94;5051616;28;20100;-55
2023/04/22 08:09:34;;;;;;;5.63;3.05;;;;;;;15.10;80.78;99574.63;5051958;28;20433;-58
2023/04/22 08:12:00;;;;;;;4.63;2.55;;;;;;;15.20;81.27;99575.78;5051920;28;20045;-58
2023/04/22 08:14:25;;;;;;;4.15;2.65;;;;;;;15.29;80.73;99573.63;5051920;28;20045;-58
2023/04/22 08:16:51;;;;;;;4.32;2.78;;;;;;;15.44;76.88;99565.22;5051697;28;20083;-59
2023/04/22 08:19:17;;;;;;;6.15;3.33;;;;;;;15.52;76.77;99561.44;5051878;28;20033;-58
2023/04/22 08:21:43;;;;;;;6.15;2.70;;;;;;;15.69;76.63;99571.41;5051877;28;20069;-58
2023/04/22 08:24:09;;;;;;;5.50;2.88;;;;;;;15.92;73.76;99556.50;5052099;28;20072;-59
2023/04/22 08:26:36;;;;;;;5.28;2.42;;;;;;;15.97;73.00;99556.63;5051869;28;20079;-61
2023/04/22 08:29:02;;;;;;;3.63;2.38;;;;;;;16.28;69.17;99561.81;5051691;28;20056;-61
2023/04/22 08:31:28;;;;;;;4.32;2.50;;;;;;;16.31;67.73;99559.75;5051700;28;20067;-61
2023/04/22 08:33:53;;;;;;;5.47;2.78;;;;;;;16.48;71.17;99561.56;5051873;28;20467;-61
2023/04/22 08:36:21;;;;;;;3.05;2.17;;;;;;;16.65;73.22;99559.06;5051780;28;20033;-61
2023/04/22 08:38:47;;;;;;;3.03;2.33;;;;;;;16.75;69.79;99562.00;5051442;28;20073;-61
2023/04/22 08:41:14;;;;;;;3.10;2.13;;;;;;;17.04;69.63;99560.34;5052380;28;20037;-61
2023/04/22 08:43:40;;;;;;;3.25;2.30;;;;;;;17.11;69.74;99564.78;5051895;28;20460;-58
2023/04/22 08:46:05;;;;;;;3.13;2.00;;;;;;;17.19;71.88;99559.88;5051861;28;20123;-56
2023/04/22 08:48:31;;;;;;;5.20;2.20;;;;;;;17.34;66.53;99562.94;5051675;28;20051;-60
2023/04/22 08:50:57;;;;;;;2.75;1.98;;;;;;;17.45;67.71;99561.28;5051694;28;20516;-61
2023/04/22 08:53:22;;;;;;;3.80;2.17;;;;;;;17.43;61.39;99559.91;5051855;28;20095;-61
2023/04/22 08:55:49;;;;;;;3.67;2.22;;;;;;;17.62;65.34;99562.22;5051431;28;20045;-62
2023/04/22 08:58:14;;;;;;;2.88;1.55;;;;;;;17.73;65.00;99557.09;5051341;28;20063;-62
2023/04/22 09:00:44;;;;;;;3.05;1.80;;;;;;;18.00;60.90;99562.78;5051455;28;20029;-61
2023/04/22 09:03:10;;;;;;;2.95;1.92;;;;;;;18.12;60.57;99553.59;5051601;28;20040;-62
2023/04/22 09:05:38;;;;;;;1.95;1.50;;;;;;;18.43;57.97;99548.81;5051861;28;20405;-62
2023/04/22 09:08:04;;;;;;;6.38;1.92;;;;;;;18.54;61.82;99541.72;5052864;28;20040;-62
2023/04/22 09:10:30;;;;;;;3.33;1.60;;;;;;;18.55;63.01;99543.34;5055160;28;20494;-62
2023/04/22 09:12:56;;;;;;;2.53;1.77;;;;;;;18.75;60.26;99532.97;5055239;28;20041;-62
2023/04/22 09:15:22;;;;;;;3.10;1.80;;;;;;;18.94;59.61;99530.84;5055148;28;20055;-62
2023/04/22 09:17:50;;;;;;;2.88;1.83;;;;;;;19.08;60.93;99531.34;5054693;28;20040;-62
2023/04/22 09:20:18;;;;;;;3.20;1.70;;;;;;;19.19;58.43;99520.44;5055113;28;20045;-61
2023/04/22 09:22:47;;;;;;;;;;;;;;;19.39;60.14;99522.63;5055538;28;20037;-61
2023/04/22 09:25:17;;;;;;;3.05;1.77;;;;;;;19.40;56.59;99512.66;5054990;28;19909;-62
2023/04/22 09:27:48;;;;;;;2.40;1.60;;;;;;;19.48;54.22;99517.63;5054360;28;20032;-61
2023/04/22 09:30:13;;;;;;;2.70;1.50;;;;;;;19.45;55.05;99520.81;5054947;28;20049;-61
2023/04/22 09:32:39;;;;;;;3.03;1.60;;;;;;;19.72;56.13;99507.44;5054876;28;20040;-62
2023/04/22 09:35:05;;;;;;;2.30;1.67;;;;;;;19.98;59.75;99503.16;5054914;28;20044;-62
2023/04/22 09:37:32;;;;;;;3.92;2.22;;;;;;;20.36;55.25;99498.72;5054494;28;20114;-62
2023/04/22 09:39:58;;;;;;;5.45;2.15;;;;;;;20.58;58.78;99502.19;5054654;28;20064;-60
2023/04/22 09:42:23;;;;;;;1.85;1.45;;;;;;;20.86;55.90;99499.22;5053551;28;20478;-61
2023/04/22 09:44:51;;;;;;;2.65;1.45;;;;;;;21.03;49.82;99499.03;5054551;28;20037;-61
2023/04/22 09:47:18;;;;;;;2.70;1.70;;;;;;;21.44;52.68;99499.34;5054260;28;20033;-60
2023/04/22 09:49:48;;;;;;;2.15;1.70;;;;;;;21.81;52.93;99498.44;5054452;28;20063;-61
2023/04/22 09:52:25;;;;;;;2.03;1.50;;;;;;;22.17;49.84;99499.41;5054435;28;20044;-62
2023/04/22 09:54:51;;;;;;;3.03;1.70;;;;;;;22.54;51.20;99503.81;5054343;28;20063;-60
2023/04/22 09:57:17;;;;;;;2.38;1.50;;;;;;;22.92;53.09;99507.94;5054013;28;20025;-61
2023/04/22 09:59:42;;;;;;;2.58;1.48;;;;;;;23.16;50.26;99508.19;5054323;28;20452;-62
2023/04/22 10:02:08;;;;;;;2.08;1.55;;;;;;;23.51;50.22;99516.28;5054320;28;20179;-61
2023/04/22 10:04:34;;;;;;;3.15;1.75;;;;;;;23.87;51.76;99507.22;5054327;28;20036;-62
2023/04/22 10:07:01;;;;;;;2.35;2.00;;;;;;;24.10;49.28;99507.38;5053857;28;20473;-62
2023/04/22 10:09:27;;;;;;;2.72;1.42;;;;;;;24.34;45.99;99506.72;5053970;28;20037;-61
2023/04/22 10:11:54;;;;;;;2.30;1.63;;;;;;;24.64;46.88;99506.50;5054064;28;20041;-62
2023/04/22 10:14:20;;;;;;;;;;;;;;;24.58;45.13;99501.38;5054410;28;20044;-62
2023/04/22 10:16:46;;;;;;;1.85;1.35;;;;;;;25.10;44.18;99503.47;5053814;28;19916;-61
2023/04/22 10:19:22;;;;;;;1.77;1.40;;;;;;;24.92;45.40;99497.88;5053651;28;20402;-60
2023/04/22 10:21:52;;;;;;;1.60;1.45;;;;;;;24.71;41.02;99491.75;5053811;28;20391;-60
2023/04/22 10:24:18;;;;;;;2.50;1.55;;;;;;;25.16;45.67;99485.94;5053842;28;20033;-61
2023/04/22 10:26:49;;;;;;;1.92;1.33;;;;;;;25.25;41.71;99493.50;5053658;28;20044;-62
2023/04/22 10:29:16;;;;;;;2.30;1.63;;;;;;;25.36;41.31;99490.34;5053572;28;20056;-63
2023/04/22 10:32:02;;;;;;;3.65;1.55;;;;;;;25.73;42.84;99490.81;5053732;28;20563;-62
2023/04/22 10:34:29;;;;;;;1.92;1.42;;;;;;;25.98;39.11;99485.03;5053727;28;20033;-62
2023/04/22 10:37:03;;;;;;;1.50;1.30;;;;;;;26.01;38.58;99483.63;5053345;28;20108;-62
2023/04/22 10:39:29;;;;;;;1.85;1.58;;;;;;;26.16;37.76;99484.25;5053651;28;20033;-62
2023/04/22 10:42:08;;;;;;;2.72;1.85;;;;;;;26.19;39.13;99482.84;5053478;28;20452;-61
2023/04/22 10:44:44;;;;;;;1.77;1.50;;;;;;;26.36;40.36;99487.78;5053555;28;20044;-62
2023/04/22 10:47:10;;;;;;;1.90;1.70;;;;;;;26.61;41.04;99494.81;5053075;28;20036;-63
2023/04/22 10:49:35;;;;;;;3.22;1.73;;;;;;;27.03;39.27;99491.09;5053359;28;20114;-60
2023/04/22 10:52:04;;;;;;;1.90;1.40;;;;;;;26.76;38.15;99491.81;5053309;28;20040;-62
2023/04/22 10:54:35;;;;;;;1.88;1.38;;;;;;;27.36;40.72;99491.06;5053387;28;20040;-61
2023/04/22 10:57:09;;;;;;;2.28;1.80;;;;;;;27.79;39.36;99486.97;5052879;28;20066;-62
2023/04/22 10:59:44;;;;;;;3.30;1.55;;;;;;;27.35;36.55;99489.47;5053245;28;20043;-62
2023/04/22 11:02:12;;;;;;;2.22;1.45;;;;;;;27.87;37.02;99485.44;5053211;28;20063;-62
2023/04/22 11:04:38;;;;;;;2.28;1.30;;;;;;;27.72;36.74;99483.84;5053083;28;20097;-62
2023/04/22 11:07:25;;;;;;;2.87;1.73;;;;;;;27.76;34.14;99476.63;5052751;28;20048;-62
2023/04/22 11:10:04;;;;;;;1.33;1.20;;;;;;;26.79;31.09;99472.09;5052953;28;20279;-62
2023/04/22 11:12:38;;;;;;;1.55;1.13;;;;;;;26.94;35.28;99481.97;5052922;28;20032;-56
2023/04/22 11:15:13;;;;;;;1.85;1.40;;;;;;;27.04;34.16;99484.50;5053148;28;20551;-62
2023/04/22 11:17:42;;;;;;;1.08;1.00;;;;;;;27.07;32.22;99477.69;5051694;28;20043;-62
2023/04/22 11:20:09;;;;;;;1.27;1.10;;;;;;;26.91;30.54;99480.63;5071893;28;20424;-62
2023/04/22 11:22:36;;;;;;;1.95;1.30;;;;;;;27.29;30.90;99486.00;5072585;28;20753;-62
2023/04/22 11:25:03;;;;;;;1.67;1.50;;;;;;;27.50;30.54;99481.75;5072434;28;20081;-62
2023/04/22 11:27:29;;;;;;;3.90;0.98;;;;;;;27.15;30.27;99474.25;5055287;28;20044;-62
2023/04/22 11:30:08;;;;;;;1.20;1.08;;;;;;;26.76;29.95;99475.44;5051583;28;20228;-64
2023/04/22 11:32:34;;;;;;;1.27;0.70;;;;;;;26.83;30.86;99472.31;5051985;28;20086;-62
2023/04/22 11:35:06;;;;;;;0.82;0.80;;;;;;;25.96;29.82;99477.16;5052033;28;20498;-63
2023/04/22 11:37:42;;;;;;;0.88;0.88;;;;;;;25.67;32.58;99476.38;5050894;28;20115;-63
2023/04/22 11:40:13;;;;;;;2.03;1.45;;;;;;;25.25;32.26;99483.41;5051636;28;20032;-62
2023/04/22 11:42:39;;;;;;;3.55;1.10;;;;;;;23.81;33.55;99487.41;5049340;28;20052;-63
2023/04/22 11:45:05;;;;;;;2.80;1.20;;;;;;;23.88;35.34;99487.09;5051560;28;20084;-63
2023/04/22 11:47:32;;;;;;;1.55;1.20;;;;;;;23.59;35.63;99503.19;5057561;28;20040;-61
2023/04/22 11:50:00;;;;;;;1.60;0.98;;;;;;;22.97;35.26;99500.59;5051867;28;20102;-62
2023/04/22 11:52:40;;;;;;;2.22;1.20;;;;;;;22.79;37.75;99505.72;5051440;28;20124;-62
2023/04/22 11:55:10;;;;;;;1.33;1.20;;;;;;;22.63;37.41;99499.50;5049786;28;20029;-62
2023/04/22 11:57:35;;;;;;;2.33;1.02;;;;;;;22.47;38.19;99513.03;5051318;28;20055;-63
2023/04/22 12:00:01;;;;;;;1.27;1.13;;;;;;;22.55;38.23;99506.25;5051624;28;20525;-63
2023/04/22 12:02:26;;;;;;;1.60;1.10;;;;;;;22.44;38.01;99504.63;5051638;28;20490;-62
2023/04/22 12:04:51;;;;;;;1.73;1.30;;;;;;;22.69;36.49;99499.22;5051516;28;20037;-63
2023/04/22 12:07:17;;;;;;;1.98;1.08;;;;;;;23.14;38.10;99497.59;5058385;28;20025;-63
2023/04/22 12:09:42;;;;;;;1.63;1.40;;;;;;;23.42;37.90;99490.75;5051462;28;20502;-62
2023/04/22 12:12:08;;;;;;;1.65;1.20;;;;;;;23.50;34.78;99497.53;5051614;28;20025;-64
2023/04/22 12:14:34;;;;;;;1.30;0.90;;;;;;;23.53;33.76;99494.25;5051477;28;20033;-63
2023/04/22 12:17:04;;;;;;;1.50;1.00;;;;;;;23.73;34.00;99496.09;5051346;28;20456;-63
2023/04/22 12:19:30;;;;;;;2.35;1.38;;;;;;;23.60;34.55;99494.75;5042211;28;20033;-63
2023/04/22 12:21:56;;;;;;;1.70;1.10;;;;;;;23.68;35.27;99494.25;5051334;28;20031;-63
2023/04/22 12:24:28;;;;;;;1.05;0.85;;;;;;;23.68;34.85;99488.81;5051541;28;20087;-63
2023/04/22 12:26:55;;;;;;;2.45;1.25;;;;;;;23.58;35.38;99496.13;5050870;28;20024;-63
2023/04/22 12:29:31;;;;;;;0.85;0.85;;;;;;;23.47;35.60;99503.50;5066473;28;20021;-63
2023/04/22 12:31:57;;;;;;;1.90;1.27;;;;;;;23.45;35.80;99502.97;5050239;28;20409;-63
2023/04/22 12:34:23;;;;;;;1.80;1.10;;;;;;;23.21;35.40;99508.16;5051422;28;20044;-62
2023/04/22 12:36:49;;;;;;;1.67;1.30;;;;;;;23.48;34.79;99497.81;5051215;28;20063;-63
2023/04/22 12:39:14;;;;;;;1.48;1.10;;;;;;;23.51;35.99;99510.84;5051059;28;20098;-64
2023/04/22 12:41:40;;;;;;;1.77;1.40;;;;;;;23.50;35.76;99498.34;5051227;28;20053;-61
2023/04/22 12:44:07;;;;;;;1.58;1.30;;;;;;;23.80;37.16;99497.47;5054850;28;20021;-63
2023/04/22 12:46:32;;;;;;;2.00;1.20;;;;;;;23.99;37.00;99488.66;5055310;28;20051;-63
2023/04/22 12:48:58;;;;;;;2.65;1.20;;;;;;;24.32;34.21;99490.66;5054879;28;20283;-63
2023/04/22 12:51:23;;;;;;;1.58;0.77;;;;;;;24.45;33.26;99497.41;5055003;28;20474;-63
2023/04/22 12:53:48;;;;;;;1.80;0.95;;;;;;;24.57;34.71;99489.69;5055068;28;20036;-63
2023/04/22 12:56:14;;;;;;;1.50;1.05;;;;;;;24.49;33.63;99492.19;5054777;28;20456;-63
2023/04/22 12:58:39;;;;;;;0.93;0.85;;;;;;;24.19;32.50;99488.56;5054691;28;20037;-63
2023/04/22 13:01:05;;;;;;;1.13;0.90;;;;;;;23.99;32.19;99492.19;5054996;28;20025;-62
2023/04/22 13:03:30;;;;;;;2.88;1.38;;;;;;;24.38;35.60;99494.16;5054990;28;20041;-63
2023/04/22 13:05:56;;;;;;;1.77;1.08;;;;;;;25.08;31.34;99488.47;5055037;28;20047;-64
2023/04/22 13:08:21;;;;;;;1.63;1.10;;;;;;;25.62;32.39;99490.06;5054880;28;20391;-62
2023/04/22 13:10:47;;;;;;;2.90;1.10;;;;;;;26.26;31.97;99486.00;5055143;28;20182;-63
2023/04/22 13:13:12;;;;;;;1.48;1.10;;;;;;;26.74;33.06;99472.22;5055232;28;20090;-62
2023/04/22 13:15:38;;;;;;;1.45;1.00;;;;;;;26.97;30.98;99476.72;5055069;28;20044;-62
2023/04/22 13:18:03;;;;;;;1.17;0.85;;;;;;;26.97;31.21;99481.38;5054708;28;20106;-61
2023/04/22 13:20:29;;;;;;;1.48;0.85;;;;;;;26.72;32.00;99472.47;5055266;28;20568;-62
2023/04/22 13:22:54;;;;;;;1.52;1.10;;;;;;;26.98;31.77;99480.25;5055531;28;20071;-54
2023/04/22 13:25:20;;;;;;;1.58;1.10;;;;;;;26.74;35.51;99474.94;5055756;28;20134;-62
2023/04/22 13:27:45;;;;;;;2.80;1.13;;;;;;;27.38;33.17;99473.25;5054542;28;20083;-60
2023/04/22 13:30:11;;;;;;;1.85;0.90;;;;;;;26.44;31.56;99468.84;5054857;28;20029;-60
2023/04/22 13:32:37;;;;;;;3.03;1.30;;;;;;;26.06;33.94;99464.47;5054735;28;20410;-59
2023/04/22 13:35:03;;;;;;;1.23;1.05;;;;;;;25.58;33.18;99459.88;5054755;28;20043;-61
2023/04/22 13:37:28;;;;;;;1.50;1.10;;;;;;;25.37;36.29;99459.31;5054461;28;20489;-59
2023/04/22 13:39:54;;;;;;;1.52;1.10;;;;;;;24.86;35.21;99457.06;5054701;28;20055;-60
2023/04/22 13:42:20;;;;;;;0.85;0.75;;;;;;;24.71;36.01;99461.81;5054705;28;20035;-60
2023/04/22 13:44:46;;;;;;;1.00;0.90;;;;;;;24.42;36.37;99453.59;5054589;28;20124;-64
2023/04/22 13:47:11;;;;;;;0.80;0.77;;;;;;;24.20;36.08;99452.09;5054229;28;20033;-64
2023/04/22 13:49:37;;;;;;;1.25;0.90;;;;;;;23.96;35.93;99449.25;5054523;28;20037;-64
2023/04/22 13:52:02;;;;;;;1.00;0.90;;;;;;;23.90;34.61;99442.19;5054440;28;20104;-63
2023/04/22 13:54:28;;;;;;;1.70;0.93;;;;;;;23.86;34.34;99443.84;5053837;28;20032;-63
2023/04/22 13:56:53;;;;;;;1.05;0.90;;;;;;;23.51;36.13;99456.47;5054236;28;20091;-63
2023/04/22 13:59:19;;;;;;;1.17;1.00;;;;;;;23.51;35.50;99445.59;5054161;28;20398;-63
2023/04/22 14:01:44;;;;;;;1.45;1.10;;;;;;;23.66;35.79;99446.66;5054360;28;20510;-64
2023/04/22 14:04:09;;;;;;;2.38;1.30;;;;;;;23.29;36.96;99439.72;5054263;28;20044;-64
2023/04/22 14:06:35;;;;;;;2.60;0.73;;;;;;;23.25;37.13;99441.34;5054023;28;20047;-63
2023/04/22 14:09:03;;;;;;;1.10;1.00;;;;;;;23.14;37.08;99435.13;5053827;28;20044;-66
2023/04/22 14:11:29;;;;;;;1.38;1.00;;;;;;;23.28;37.22;99438.09;5054027;28;20394;-66
2023/04/22 14:13:54;;;;;;;1.20;1.00;;;;;;;23.22;37.75;99441.91;5054231;28;20041;-63
2023/04/22 14:16:20;;;;;;;1.52;1.00;;;;;;;23.15;35.79;99435.97;5053827;28;20044;-63
2023/04/22 14:18:45;;;;;;;1.38;0.88;;;;;;;22.97;37.00;99437.34;5053670;28;20048;-65
2023/04/22 14:21:11;;;;;;;1.20;0.93;;;;;;;22.88;36.84;99447.09;5053685;28;20033;-64
2023/04/22 14:23:38;;;;;;;1.67;1.23;;;;;;;22.88;36.83;99444.41;5053667;28;20540;-63
2023/04/22 14:26:05;;;;;;;1.42;1.05;;;;;;;22.89;37.12;99443.34;5053689;28;20028;-65
2023/04/22 14:28:31;;;;;;;0.90;0.90;;;;;;;22.98;35.74;99439.78;5053459;28;20029;-64
2023/04/22 14:30:56;;;;;;;1.77;1.15;;;;;;;22.77;36.04;99437.34;5053643;28;20041;-64
2023/04/22 14:33:23;;;;;;;1.20;1.00;;;;;;;22.80;37.28;99445.72;5053753;28;20033;-64
2023/04/22 14:35:53;;;;;;;1.35;0.80;;;;;;;22.44;35.54;99443.03;5053654;28;20502;-63
2023/04/22 14:38:19;;;;;;;1.58;1.00;;;;;;;22.32;36.11;99438.94;5053134;28;20410;-64
2023/04/22 14:40:46;;;;;;;2.30;1.10;;;;;;;22.25;37.52;99443.81;5053736;28;20032;-63
2023/04/22 14:43:12;;;;;;;1.30;0.90;;;;;;;22.24;37.85;99437.59;5053550;28;20298;-64
2023/04/22 14:45:38;;;;;;;1.73;1.00;;;;;;;22.05;36.95;99439.97;5053316;28;20043;-63
2023/04/22 14:48:03;;;;;;;1.45;1.15;;;;;;;22.02;38.07;99434.25;5053096;28;20128;-65
2023/04/22 14:50:29;;;;;;;0.80;0.80;;;;;;;21.81;38.03;99436.91;5053148;28;20126;-63
2023/04/22 14:52:55;;;;;;;1.33;1.00;;;;;;;21.80;37.59;99437.19;5053334;28;20124;-63
2023/04/22 14:55:20;;;;;;;1.38;1.00;;;;;;;21.79;38.31;99438.28;5053040;28;20469;-62
2023/04/22 14:57:48;;;;;;;2.15;0.80;;;;;;;21.65;38.71;99424.41;5052916;28;20071;-63
2023/04/22 15:00:14;;;;;;;1.25;0.88;;;;;;;21.60;38.90;99430.59;5053132;28;20029;-64
2023/04/22 15:02:39;;;;;;;1.95;1.23;;;;;;;21.54;40.06;99434.38;5052844;28;20574;-65
2023/04/22 15:05:05;;;;;;;2.13;1.00;;;;;;;21.49;39.74;99434.34;5050953;28;20123;-64
2023/04/22 15:07:31;;;;;;;3.00;1.00;;;;;;;21.46;39.66;99432.19;5052536;28;20040;-63
2023/04/22 15:09:57;;;;;;;1.65;1.08;;;;;;;21.36;39.95;99441.06;5052903;28;20037;-63
2023/04/22 15:12:24;;;;;;;2.15;1.30;;;;;;;21.30;39.35;99438.59;5052860;28;20029;-63
2023/04/22 15:14:49;;;;;;;1.60;1.07;;;;;;;21.25;39.63;99442.03;5052958;28;20078;-64
2023/04/22 15:17:14;;;;;;;1.88;1.35;;;;;;;21.27;40.36;99439.91;5052397;28;20049;-64
2023/04/22 15:19:40;;;;;;;1.75;1.08;;;;;;;21.25;39.47;99452.06;5052784;28;20044;-64
2023/04/22 15:22:05;;;;;;;1.65;1.35;;;;;;;21.18;40.00;99444.16;5053040;28;20041;-64
2023/04/22 15:24:31;;;;;;;1.58;1.00;;;;;;;21.15;39.69;99447.41;5052722;28;20041;-64
2023/04/22 15:26:56;;;;;;;1.60;1.20;;;;;;;21.16;40.46;99451.75;5052468;28;20083;-63
2023/04/22 15:29:22;;;;;;;1.55;1.10;;;;;;;21.14;40.56;99452.03;5052692;28;20076;-65
2023/04/22 15:31:47;;;;;;;1.55;1.27;;;;;;;21.06;40.14;99446.25;5052726;28;20120;-63
2023/04/22 15:34:13;;;;;;;1.90;1.35;;;;;;;21.05;40.77;99455.47;5052546;28;20123;-64
2023/04/22 15:36:38;;;;;;;2.20;1.70;;;;;;;21.12;40.46;99453.34;5052256;28;20047;-64
2023/04/22 15:39:04;;;;;;;4.15;1.70;;;;;;;21.08;40.42;99446.84;5052376;28;20037;-63
2023/04/22 15:41:32;;;;;;;5.03;1.70;;;;;;;21.10;41.09;99456.31;5052497;28;20500;-65
2023/04/22 15:43:58;;;;;;;1.77;1.60;;;;;;;21.14;41.54;99451.22;5052398;28;20044;-65
2023/04/22 15:46:26;;;;;;;2.30;1.25;;;;;;;21.22;41.73;99455.31;5052434;28;20040;-63
2023/04/22 15:48:51;;;;;;;1.40;1.25;;;;;;;21.20;41.19;99461.00;5052094;28;20509;-63
2023/04/22 15:51:18;;;;;;;2.40;1.70;;;;;;;21.23;41.83;99465.06;5052099;28;20040;-64
2023/04/22 15:53:47;;;;;;;2.20;1.67;;;;;;;21.18;42.10;99451.47;5052262;28;20482;-63
2023/04/22 15:56:13;;;;;;;2.35;1.48;;;;;;;21.10;42.14;99466.34;5052116;28;20505;-63